Time;durP1;ratioP1;P1;durP2;ratioP2;P2;SDS_P1;SDS_P2;PMS_P1;PMS_P2;Temp;Humidity;BMP_temperature;BMP_pressure;BME280_temperature;BME280_humidity;BME280_pressure;Samples;Min_cycle;Max_cycle;Signal;HPM_P1;HPM_P2
2023/11/15 00:02:14;;;;;;;102.90;64.35;;;;;;;;;;5038476;28;20037;-68
2023/11/15 00:04:40;;;;;;;92.28;63.88;;;;;;;;;;5049072;28;20025;-68
2023/11/15 00:07:06;;;;;;;98.03;64.85;;;;;;;;;;5039363;28;20447;-68
2023/11/15 00:09:33;;;;;;;106.55;68.00;;;;;;;;;;5053712;28;20021;-68
2023/11/15 00:11:59;;;;;;;104.32;65.68;;;;;;;;;;5042130;28;20033;-67
2023/11/15 00:14:25;;;;;;;102.00;65.53;;;;;;;;;;5052412;28;20494;-68
2023/11/15 00:16:51;;;;;;;108.82;72.43;;;;;;;;;;5050849;28;20022;-68
2023/11/15 00:19:17;;;;;;;99.45;65.68;;;;;;;;;;5052336;28;20029;-68
2023/11/15 00:21:44;;;;;;;108.65;70.85;;;;;;;;;;5039870;28;20026;-68
2023/11/15 00:24:10;;;;;;;108.70;68.35;;;;;;;;;;5051084;28;20044;-68
2023/11/15 00:26:36;;;;;;;100.25;68.00;;;;;;;;;;5036091;28;20123;-68
2023/11/15 00:29:03;;;;;;;94.95;66.45;;;;;;;;;;5040828;28;20393;-68
2023/11/15 00:31:29;;;;;;;101.22;67.85;;;;;;;;;;5047204;28;20120;-68
2023/11/15 00:33:55;;;;;;;107.72;66.95;;;;;;;;;;5052865;28;20395;-68
2023/11/15 00:36:22;;;;;;;94.85;63.95;;;;;;;;;;5053933;28;20351;-68
2023/11/15 00:38:51;;;;;;;99.30;67.78;;;;;;;;;;5046623;28;20111;-69
2023/11/15 00:41:18;;;;;;;93.00;65.03;;;;;;;;;;5034858;28;20033;-69
2023/11/15 00:43:44;;;;;;;101.07;64.90;;;;;;;;;;5036165;28;20048;-69
2023/11/15 00:46:13;;;;;;;93.07;62.15;;;;;;;;;;5035143;28;20033;-69
2023/11/15 00:48:40;;;;;;;81.90;57.92;;;;;;;;;;5037959;28;20017;-69
2023/11/15 00:51:06;;;;;;;88.72;58.50;;;;;;;;;;5046133;28;20091;-69
2023/11/15 00:53:33;;;;;;;78.72;53.33;;;;;;;;;;5042050;28;20021;-69
2023/11/15 00:55:59;;;;;;;76.72;53.22;;;;;;;;;;5051877;28;20052;-69
2023/11/15 00:58:38;;;;;;;81.50;52.58;;;;;;;;;;5045288;28;20053;-69
2023/11/15 01:01:08;;;;;;;78.50;50.60;;;;;;;;;;5040811;28;20022;-69
2023/11/15 01:03:34;;;;;;;67.90;43.33;;;;;;;;;;5040978;28;20025;-69
2023/11/15 01:06:01;;;;;;;61.60;41.97;;;;;;;;;;5041279;28;20118;-69
2023/11/15 01:08:27;;;;;;;64.63;44.65;;;;;;;;;;5038787;28;20112;-69
2023/11/15 01:10:54;;;;;;;67.13;42.92;;;;;;;;;;5053431;28;20037;-69
2023/11/15 01:13:21;;;;;;;66.05;42.65;;;;;;;;;;5051822;28;20032;-69
2023/11/15 01:15:47;;;;;;;61.45;38.53;;;;;;;;;;5053209;28;20032;-69
2023/11/15 01:18:13;;;;;;;61.38;40.47;;;;;;;;;;5053260;28;20100;-69
2023/11/15 01:20:39;;;;;;;63.25;38.67;;;;;;;;;;5053011;28;20017;-69
2023/11/15 01:23:06;;;;;;;55.03;34.95;;;;;;;;;;5051352;28;20032;-69
2023/11/15 01:25:35;;;;;;;57.65;36.58;;;;;;;;;;5046347;28;20359;-69
2023/11/15 01:28:01;;;;;;;57.28;35.67;;;;;;;;;;5042875;28;20116;-69
2023/11/15 01:30:27;;;;;;;57.53;35.15;;;;;;;;;;5061545;28;20107;-69
2023/11/15 01:32:53;;;;;;;53.35;33.75;;;;;;;;;;5051165;28;20025;-69
2023/11/15 01:35:19;;;;;;;56.17;35.40;;;;;;;;;;5046584;28;20242;-69
2023/11/15 01:37:46;;;;;;;52.08;32.20;;;;;;;;;;5045122;28;20374;-69
2023/11/15 01:40:13;;;;;;;53.63;30.95;;;;;;;;;;5049521;28;20032;-69
2023/11/15 01:42:39;;;;;;;48.45;29.92;;;;;;;;;;5049843;28;20382;-70
2023/11/15 01:45:06;;;;;;;54.60;31.55;;;;;;;;;;5035139;28;20036;-69
2023/11/15 01:47:32;;;;;;;47.85;28.35;;;;;;;;;;5041071;28;20064;-69
2023/11/15 01:49:58;;;;;;;50.65;28.92;;;;;;;;;;5049858;28;20075;-69
2023/11/15 01:52:24;;;;;;;47.45;27.38;;;;;;;;;;5038589;28;20055;-69
2023/11/15 01:54:51;;;;;;;49.72;28.88;;;;;;;;;;5042273;28;20018;-70
2023/11/15 01:57:18;;;;;;;47.67;27.90;;;;;;;;;;5052641;28;20094;-70
2023/11/15 01:59:44;;;;;;;51.10;27.98;;;;;;;;;;5043734;28;20037;-69
2023/11/15 02:02:10;;;;;;;44.03;25.58;;;;;;;;;;5045894;28;20017;-69
2023/11/15 02:04:37;;;;;;;42.38;25.20;;;;;;;;;;5046259;28;20462;-69
2023/11/15 02:07:03;;;;;;;44.97;26.45;;;;;;;;;;5047290;28;20066;-70
2023/11/15 02:09:29;;;;;;;46.72;26.60;;;;;;;;;;5048199;28;20096;-69
2023/11/15 02:11:55;;;;;;;47.63;26.13;;;;;;;;;;5049516;28;20024;-70
2023/11/15 02:14:21;;;;;;;45.58;26.20;;;;;;;;;;5051131;28;20071;-69
2023/11/15 02:16:48;;;;;;;47.67;26.25;;;;;;;;;;5043597;28;20042;-69
2023/11/15 02:19:15;;;;;;;48.78;26.30;;;;;;;;;;5047138;28;20017;-69
2023/11/15 02:21:41;;;;;;;49.50;27.40;;;;;;;;;;5051335;28;20021;-70
2023/11/15 02:24:08;;;;;;;49.00;26.83;;;;;;;;;;5050930;28;20098;-69
2023/11/15 02:26:34;;;;;;;47.35;26.70;;;;;;;;;;5047181;28;20527;-69
2023/11/15 02:29:00;;;;;;;54.03;26.88;;;;;;;;;;5040832;28;20036;-69
2023/11/15 02:31:26;;;;;;;52.90;27.98;;;;;;;;;;5049670;28;20048;-69
2023/11/15 02:33:52;;;;;;;56.97;27.42;;;;;;;;;;5049118;28;20049;-70
2023/11/15 02:36:18;;;;;;;51.97;26.80;;;;;;;;;;5050216;28;20084;-69
2023/11/15 02:38:44;;;;;;;52.95;27.83;;;;;;;;;;5047904;28;20021;-70
2023/11/15 02:41:12;;;;;;;52.13;27.05;;;;;;;;;;5040236;28;20494;-70
2023/11/15 02:43:38;;;;;;;50.00;25.83;;;;;;;;;;5044297;28;20022;-69
2023/11/15 02:46:04;;;;;;;49.85;27.33;;;;;;;;;;5048446;28;20039;-69
2023/11/15 02:48:30;;;;;;;52.72;27.85;;;;;;;;;;5041195;28;20040;-70
2023/11/15 02:50:56;;;;;;;54.72;27.95;;;;;;;;;;5048770;28;20049;-69
2023/11/15 02:53:22;;;;;;;49.78;25.48;;;;;;;;;;5049774;28;20028;-69
2023/11/15 02:55:48;;;;;;;49.38;26.05;;;;;;;;;;5046641;28;20191;-70
2023/11/15 03:04:22;;;;;;;46.88;24.75;;;;;;;;;;5038272;28;20083;-70
2023/11/15 03:06:48;;;;;;;48.92;25.27;;;;;;;;;;5048705;28;20033;-70
2023/11/15 03:09:14;;;;;;;50.13;26.90;;;;;;;;;;5035597;28;20090;-69
2023/11/15 03:11:40;;;;;;;45.88;24.02;;;;;;;;;;5051288;28;20036;-70
2023/11/15 03:14:06;;;;;;;49.25;24.40;;;;;;;;;;5050655;28;20033;-70
2023/11/15 03:16:32;;;;;;;50.17;25.65;;;;;;;;;;5038791;28;20067;-70
2023/11/15 03:18:58;;;;;;;44.92;23.48;;;;;;;;;;5047012;28;20461;-70
2023/11/15 03:21:25;;;;;;;42.78;23.42;;;;;;;;;;5046659;28;20022;-70
2023/11/15 03:23:51;;;;;;;47.00;24.30;;;;;;;;;;5050683;28;20029;-70
2023/11/15 03:26:17;;;;;;;52.45;25.55;;;;;;;;;;5047952;28;20025;-70
2023/11/15 03:28:43;;;;;;;47.13;24.08;;;;;;;;;;5046729;28;20047;-70
2023/11/15 03:31:12;;;;;;;47.42;24.45;;;;;;;;;;5039788;28;20119;-70
2023/11/15 03:33:38;;;;;;;45.25;22.48;;;;;;;;;;5045890;28;20322;-70
2023/11/15 03:36:05;;;;;;;45.25;22.45;;;;;;;;;;5049804;28;20032;-70
2023/11/15 03:38:31;;;;;;;47.33;23.98;;;;;;;;;;5069248;28;20422;-70
2023/11/15 03:40:57;;;;;;;49.05;23.98;;;;;;;;;;5052211;28;20481;-70
2023/11/15 03:43:24;;;;;;;43.53;22.48;;;;;;;;;;5047465;28;20104;-70
2023/11/15 03:45:50;;;;;;;42.13;23.42;;;;;;;;;;5049657;28;20429;-70
2023/11/15 03:48:16;;;;;;;47.05;23.35;;;;;;;;;;5045675;28;20027;-70
2023/11/15 03:50:41;;;;;;;45.85;24.13;;;;;;;;;;5037352;28;20050;-70
2023/11/15 03:53:07;;;;;;;49.83;23.83;;;;;;;;;;5046161;28;20029;-70
2023/11/15 03:55:33;;;;;;;47.90;24.55;;;;;;;;;;5042629;28;20025;-70
2023/11/15 03:57:59;;;;;;;54.55;26.00;;;;;;;;;;5046507;28;20577;-70
2023/11/15 04:00:25;;;;;;;56.95;26.02;;;;;;;;;;5045148;28;20067;-70
2023/11/15 04:02:52;;;;;;;52.58;25.85;;;;;;;;;;5049806;28;20045;-70
2023/11/15 04:05:18;;;;;;;48.67;24.77;;;;;;;;;;5040505;28;20475;-70
2023/11/15 04:07:44;;;;;;;49.83;23.92;;;;;;;;;;5035746;28;20036;-70
2023/11/15 04:10:11;;;;;;;50.63;25.25;;;;;;;;;;5042214;28;20380;-70
2023/11/15 04:12:42;;;;;;;59.67;26.77;;;;;;;;;;5050616;28;20049;-70
2023/11/15 04:15:09;;;;;;;58.42;26.23;;;;;;;;;;5044328;28;20074;-70
2023/11/15 04:17:35;;;;;;;52.25;25.75;;;;;;;;;;5038913;28;20020;-70
2023/11/15 04:20:01;;;;;;;52.95;26.30;;;;;;;;;;5052658;28;20083;-70
2023/11/15 04:22:27;;;;;;;53.65;26.52;;;;;;;;;;5051859;28;20458;-70
2023/11/15 04:24:53;;;;;;;47.30;24.35;;;;;;;;;;5050803;28;20025;-70
2023/11/15 04:27:19;;;;;;;53.13;24.13;;;;;;;;;;5039064;28;20029;-69
2023/11/15 04:29:45;;;;;;;52.78;26.17;;;;;;;;;;5046849;28;20033;-70
2023/11/15 04:32:11;;;;;;;46.75;26.10;;;;;;;;;;5047030;28;20037;-70
2023/11/15 04:34:37;;;;;;;50.25;24.70;;;;;;;;;;5053646;28;20036;-70
2023/11/15 04:37:03;;;;;;;51.45;26.65;;;;;;;;;;5049985;28;20071;-70
2023/11/15 04:39:30;;;;;;;53.30;25.83;;;;;;;;;;5040650;28;20033;-70
2023/11/15 04:41:56;;;;;;;58.92;27.83;;;;;;;;;;5046836;28;20036;-70
2023/11/15 04:44:23;;;;;;;53.25;26.23;;;;;;;;;;5051565;28;20090;-70
2023/11/15 04:46:49;;;;;;;56.15;28.42;;;;;;;;;;5047622;28;20029;-70
2023/11/15 04:49:15;;;;;;;56.97;27.27;;;;;;;;;;5063012;28;20021;-70
2023/11/15 04:51:41;;;;;;;53.97;27.80;;;;;;;;;;5052546;28;20499;-70
2023/11/15 04:54:07;;;;;;;55.97;28.65;;;;;;;;;;5053215;28;20029;-70
2023/11/15 04:56:34;;;;;;;48.90;26.02;;;;;;;;;;5052787;28;20135;-70
2023/11/15 04:59:00;;;;;;;64.63;29.90;;;;;;;;;;5043269;28;20108;-70
2023/11/15 05:01:26;;;;;;;57.67;30.45;;;;;;;;;;5040181;28;20107;-70
2023/11/15 05:03:52;;;;;;;51.63;28.42;;;;;;;;;;5051104;28;20471;-70
2023/11/15 05:06:18;;;;;;;51.08;28.35;;;;;;;;;;5051338;28;20025;-70
2023/11/15 05:08:44;;;;;;;54.58;28.75;;;;;;;;;;5042112;28;20057;-70
2023/11/15 05:11:10;;;;;;;47.83;27.35;;;;;;;;;;5036219;28;20057;-70
2023/11/15 05:13:36;;;;;;;51.58;28.83;;;;;;;;;;5042838;28;20107;-70
2023/11/15 05:16:03;;;;;;;47.95;29.17;;;;;;;;;;5052093;28;20021;-70
2023/11/15 05:18:30;;;;;;;45.97;27.15;;;;;;;;;;5050803;28;20074;-70
2023/11/15 05:20:56;;;;;;;46.42;26.60;;;;;;;;;;5045228;28;20495;-70
2023/11/15 05:23:22;;;;;;;43.60;26.25;;;;;;;;;;5047565;28;20035;-70
2023/11/15 05:25:48;;;;;;;43.28;27.23;;;;;;;;;;5045900;28;20044;-70
2023/11/15 05:28:14;;;;;;;48.95;28.02;;;;;;;;;;5046464;28;20093;-70
2023/11/15 05:30:41;;;;;;;43.15;27.38;;;;;;;;;;5044504;28;20025;-70
2023/11/15 05:33:08;;;;;;;48.92;27.08;;;;;;;;;;5048977;28;20029;-70
2023/11/15 05:35:34;;;;;;;49.83;28.00;;;;;;;;;;5052500;28;20423;-70
2023/11/15 05:38:00;;;;;;;52.60;30.92;;;;;;;;;;5050816;28;20048;-70
2023/11/15 05:40:26;;;;;;;48.58;29.40;;;;;;;;;;5047616;28;20026;-70
2023/11/15 05:42:52;;;;;;;49.58;30.42;;;;;;;;;;5040104;28;20048;-70
2023/11/15 05:45:19;;;;;;;65.97;31.05;;;;;;;;;;5042433;28;20080;-70
2023/11/15 05:47:45;;;;;;;55.22;32.28;;;;;;;;;;5046641;28;20063;-70
2023/11/15 05:50:11;;;;;;;48.83;30.67;;;;;;;;;;5037384;28;20383;-70
2023/11/15 05:52:38;;;;;;;50.13;31.67;;;;;;;;;;5046035;28;20041;-70
2023/11/15 05:55:08;;;;;;;53.22;32.75;;;;;;;;;;5044405;28;20032;-70
2023/11/15 05:57:34;;;;;;;54.80;32.50;;;;;;;;;;5040601;28;20515;-70
2023/11/15 06:00:00;;;;;;;60.45;33.92;;;;;;;;;;5052278;28;20037;-70
2023/11/15 06:02:26;;;;;;;81.15;37.65;;;;;;;;;;5040078;28;20044;-71
2023/11/15 06:04:53;;;;;;;65.80;33.60;;;;;;;;;;5046784;28;20029;-70
2023/11/15 06:07:19;;;;;;;57.78;31.58;;;;;;;;;;5047621;28;20025;-70
2023/11/15 06:09:46;;;;;;;50.70;29.33;;;;;;;;;;5045881;28;20097;-70
2023/11/15 06:12:12;;;;;;;58.10;31.08;;;;;;;;;;5038071;28;20047;-70
2023/11/15 06:14:38;;;;;;;70.22;30.40;;;;;;;;;;5052338;28;20104;-70
2023/11/15 06:17:04;;;;;;;49.78;27.95;;;;;;;;;;5051882;28;20463;-70
2023/11/15 06:19:31;;;;;;;55.22;29.55;;;;;;;;;;5052048;28;20036;-70
2023/11/15 06:21:57;;;;;;;58.13;27.08;;;;;;;;;;5052025;28;20067;-70
2023/11/15 06:24:24;;;;;;;52.13;25.75;;;;;;;;;;5046196;28;20461;-70
2023/11/15 06:26:51;;;;;;;69.57;27.65;;;;;;;;;;5040791;28;20043;-71
2023/11/15 06:29:20;;;;;;;57.80;27.10;;;;;;;;;;5042999;28;20027;-70
2023/11/15 06:31:48;;;;;;;46.78;26.42;;;;;;;;;;5041533;28;20059;-71
2023/11/15 06:34:14;;;;;;;46.38;26.23;;;;;;;;;;5042102;28;20351;-71
2023/11/15 06:37:01;;;;;;;42.95;25.05;;;;;;;;;;5046881;28;20053;-71
2023/11/15 06:39:28;;;;;;;47.38;26.15;;;;;;;;;;5045614;28;20364;-68
2023/11/15 06:41:54;;;;;;;45.50;25.52;;;;;;;;;;5051607;28;20096;-68
2023/11/15 06:44:20;;;;;;;55.70;26.38;;;;;;;;;;5044314;28;20385;-68
2023/11/15 06:46:45;;;;;;;42.22;25.45;;;;;;;;;;5051522;28;20108;-68
2023/11/15 06:49:12;;;;;;;55.80;26.90;;;;;;;;;;5042540;28;20021;-68
2023/11/15 06:51:39;;;;;;;45.70;25.83;;;;;;;;;;5046127;28;20155;-68
2023/11/15 06:54:06;;;;;;;48.00;26.83;;;;;;;;;;5037718;28;20018;-68
2023/11/15 06:56:33;;;;;;;46.13;25.83;;;;;;;;;;5040406;28;20056;-68
2023/11/15 06:58:59;;;;;;;40.70;24.60;;;;;;;;;;5041462;28;20479;-68
2023/11/15 07:01:25;;;;;;;40.42;26.48;;;;;;;;;;5043231;28;20078;-68
2023/11/15 07:03:52;;;;;;;54.15;25.67;;;;;;;;;;5044420;28;20032;-68
2023/11/15 07:06:18;;;;;;;43.63;25.23;;;;;;;;;;5048610;28;20025;-68
2023/11/15 07:08:44;;;;;;;45.05;26.73;;;;;;;;;;5044619;28;20044;-68
2023/11/15 07:11:10;;;;;;;36.35;23.20;;;;;;;;;;5052701;28;20055;-68
2023/11/15 07:13:36;;;;;;;41.00;23.83;;;;;;;;;;5046982;28;20108;-64
2023/11/15 07:16:04;;;;;;;37.53;23.25;;;;;;;;;;5040232;28;20055;-64
2023/11/15 07:18:31;;;;;;;40.17;23.35;;;;;;;;;;5039901;28;20374;-64
2023/11/15 07:20:57;;;;;;;44.50;23.90;;;;;;;;;;5055129;28;20040;-64
2023/11/15 07:23:23;;;;;;;40.08;22.42;;;;;;;;;;5054146;28;20029;-64
2023/11/15 07:25:49;;;;;;;33.72;20.80;;;;;;;;;;5042004;28;20039;-64
2023/11/15 07:28:18;;;;;;;35.47;20.75;;;;;;;;;;5049918;28;20508;-64
2023/11/15 07:30:44;;;;;;;30.52;18.13;;;;;;;;;;5053369;28;20017;-64
2023/11/15 07:33:10;;;;;;;23.75;16.88;;;;;;;;;;5054717;28;20106;-66
2023/11/15 07:35:36;;;;;;;22.25;16.00;;;;;;;;;;5054804;28;20029;-66
2023/11/15 07:38:03;;;;;;;22.88;15.57;;;;;;;;;;5055189;28;20021;-66
2023/11/15 07:40:29;;;;;;;21.88;15.38;;;;;;;;;;5054412;28;20021;-66
2023/11/15 07:42:57;;;;;;;20.70;15.48;;;;;;;;;;5054833;28;20498;-66
2023/11/15 07:45:23;;;;;;;18.73;14.45;;;;;;;;;;5054675;28;20094;-66
2023/11/15 07:47:49;;;;;;;26.20;14.38;;;;;;;;;;5040515;28;20104;-66
2023/11/15 07:50:15;;;;;;;21.92;15.15;;;;;;;;;;5046060;28;20049;-66
2023/11/15 07:52:43;;;;;;;28.02;16.17;;;;;;;;;;5038073;28;20033;-59
2023/11/15 07:55:10;;;;;;;31.33;16.30;;;;;;;;;;5045137;28;20356;-59
2023/11/15 07:57:36;;;;;;;20.77;14.85;;;;;;;;;;5053352;28;20044;-60
2023/11/15 08:00:04;;;;;;;21.05;15.48;;;;;;;;;;5044132;28;20025;-59
2023/11/15 08:02:30;;;;;;;23.50;16.08;;;;;;;;;;5050237;28;20025;-59
2023/11/15 08:04:56;;;;;;;20.23;14.85;;;;;;;;;;5054130;28;20387;-60
2023/11/15 08:07:22;;;;;;;20.88;15.68;;;;;;;;;;5054476;28;20108;-59
2023/11/15 08:09:48;;;;;;;19.70;14.30;;;;;;;;;;5054407;28;20075;-59
2023/11/15 08:12:14;;;;;;;20.15;15.00;;;;;;;;;;5042093;28;20064;-58
2023/11/15 08:14:40;;;;;;;21.15;16.40;;;;;;;;;;5052008;28;20071;-59
2023/11/15 08:17:06;;;;;;;23.73;17.42;;;;;;;;;;5043348;28;20391;-58
2023/11/15 08:19:32;;;;;;;24.50;16.25;;;;;;;;;;5065278;28;20029;-60
2023/11/15 08:21:58;;;;;;;26.45;17.42;;;;;;;;;;5053760;28;20029;-59
2023/11/15 08:24:25;;;;;;;25.85;17.08;;;;;;;;;;5053550;28;20059;-58
2023/11/15 08:26:53;;;;;;;26.48;18.75;;;;;;;;;;5053906;28;20028;-59
2023/11/15 08:29:19;;;;;;;23.77;17.35;;;;;;;;;;5053604;28;20029;-54
2023/11/15 08:31:45;;;;;;;21.95;16.50;;;;;;;;;;5053589;28;20033;-60
2023/11/15 08:34:11;;;;;;;26.25;17.23;;;;;;;;;;5053575;28;20410;-60
2023/11/15 08:42:44;;;;;;;29.52;17.70;;;;;;;;;;5038719;28;20060;-58
2023/11/15 08:45:12;;;;;;;28.48;18.77;;;;;;;;;;5050874;28;20025;-58
2023/11/15 08:47:39;;;;;;;31.80;19.98;;;;;;;;;;5053362;28;20017;-57
2023/11/15 08:50:08;;;;;;;32.20;20.90;;;;;;;;;;5043023;28;20056;-61
2023/11/15 08:52:34;;;;;;;30.60;19.23;;;;;;;;;;5049787;28;20185;-61
2023/11/15 08:55:01;;;;;;;33.55;20.77;;;;;;;;;;5053172;28;20105;-60
2023/11/15 08:57:28;;;;;;;33.55;21.35;;;;;;;;;;5053186;28;20099;-65
2023/11/15 08:59:55;;;;;;;32.05;20.45;;;;;;;;;;5053244;28;20017;-63
2023/11/15 09:02:22;;;;;;;34.22;21.75;;;;;;;;;;5053170;28;20078;-67
2023/11/15 09:04:52;;;;;;;33.35;21.75;;;;;;;;;;5053115;28;20166;-68
2023/11/15 09:07:21;;;;;;;38.90;24.60;;;;;;;;;;5052178;28;20040;-63
2023/11/15 09:09:47;;;;;;;35.72;25.05;;;;;;;;;;5053252;28;20029;-67
2023/11/15 09:12:13;;;;;;;40.78;26.65;;;;;;;;;;5052912;28;20091;-66
2023/11/15 09:14:39;;;;;;;43.63;27.70;;;;;;;;;;5053229;28;20017;-62
2023/11/15 09:17:12;;;;;;;46.25;29.70;;;;;;;;;;5047128;28;20494;-63
2023/11/15 09:19:38;;;;;;;53.92;32.70;;;;;;;;;;5046815;28;20025;-61
2023/11/15 09:22:05;;;;;;;48.20;31.52;;;;;;;;;;5047028;28;20037;-62
2023/11/15 09:24:33;;;;;;;45.10;29.85;;;;;;;;;;5046532;28;20056;-64
2023/11/15 09:27:00;;;;;;;47.13;29.27;;;;;;;;;;5050310;28;20051;-66
2023/11/15 09:29:28;;;;;;;49.58;29.77;;;;;;;;;;5050407;28;20128;-64
2023/11/15 09:31:54;;;;;;;45.88;29.50;;;;;;;;;;5052419;28;20071;-60
2023/11/15 09:34:20;;;;;;;53.42;31.23;;;;;;;;;;5052546;28;20056;-62
2023/11/15 09:36:49;;;;;;;48.65;30.13;;;;;;;;;;5052469;28;20036;-63
2023/11/15 09:39:18;;;;;;;54.08;31.83;;;;;;;;;;5052800;28;20021;-68
2023/11/15 09:41:54;;;;;;;48.63;32.15;;;;;;;;;;5052944;28;20079;-69
2023/11/15 09:44:23;;;;;;;53.22;32.13;;;;;;;;;;5046667;28;20100;-67
2023/11/15 09:46:57;;;;;;;54.00;31.35;;;;;;;;;;5047704;28;20421;-73
2023/11/15 09:49:24;;;;;;;56.83;33.75;;;;;;;;;;5052199;28;20061;-68
2023/11/15 09:51:51;;;;;;;50.83;33.88;;;;;;;;;;5050835;28;20352;-71
2023/11/15 09:54:20;;;;;;;46.75;31.65;;;;;;;;;;5038432;28;20029;-63
2023/11/15 09:56:48;;;;;;;44.80;30.05;;;;;;;;;;5052249;28;20074;-66
2023/11/15 09:59:14;;;;;;;48.65;30.73;;;;;;;;;;5041818;28;20032;-66
2023/11/15 10:01:50;;;;;;;48.10;30.85;;;;;;;;;;5048135;28;20028;-62
2023/11/15 10:04:23;;;;;;;45.65;29.88;;;;;;;;;;5042993;28;20443;-72
2023/11/15 10:06:52;;;;;;;45.78;31.33;;;;;;;;;;5050561;28;20355;-70
2023/11/15 10:09:38;;;;;;;48.17;30.73;;;;;;;;;;5050067;28;20406;-63
2023/11/15 10:12:06;;;;;;;45.03;31.17;;;;;;;;;;5033683;28;20045;-64
2023/11/15 10:14:32;;;;;;;48.47;31.80;;;;;;;;;;5034788;28;20331;-64
2023/11/15 10:17:00;;;;;;;42.85;29.98;;;;;;;;;;5051626;28;20429;-63
2023/11/15 10:19:27;;;;;;;44.20;30.48;;;;;;;;;;5052123;28;20467;-62
2023/11/15 10:21:57;;;;;;;42.88;30.40;;;;;;;;;;5051376;28;20078;-67
2023/11/15 10:24:23;;;;;;;46.63;32.10;;;;;;;;;;5049465;28;20029;-62
2023/11/15 10:26:50;;;;;;;45.83;31.20;;;;;;;;;;5051949;28;20032;-61
2023/11/15 10:29:19;;;;;;;40.83;30.10;;;;;;;;;;5032765;28;20173;-71
2023/11/15 10:31:51;;;;;;;46.78;31.73;;;;;;;;;;5044486;28;20427;-61
2023/11/15 10:34:19;;;;;;;48.55;31.98;;;;;;;;;;5052352;28;20382;-60
2023/11/15 10:37:01;;;;;;;41.53;28.98;;;;;;;;;;5051641;28;20405;-61
2023/11/15 10:39:28;;;;;;;45.22;30.85;;;;;;;;;;5031425;28;20021;-58
2023/11/15 10:41:55;;;;;;;45.97;31.40;;;;;;;;;;5050850;28;20394;-53
2023/11/15 10:44:22;;;;;;;42.33;29.20;;;;;;;;;;5050363;28;20059;-55
2023/11/15 10:46:49;;;;;;;45.15;31.42;;;;;;;;;;5051393;28;20108;-59
2023/11/15 10:49:18;;;;;;;46.65;30.60;;;;;;;;;;5051388;28;20032;-59
2023/11/15 10:51:44;;;;;;;45.65;31.65;;;;;;;;;;5048121;28;20040;-60
2023/11/15 10:54:14;;;;;;;45.63;30.27;;;;;;;;;;5046448;28;20098;-59
2023/11/15 10:56:41;;;;;;;42.92;29.88;;;;;;;;;;5044269;28;20099;-59
2023/11/15 10:59:08;;;;;;;43.42;30.50;;;;;;;;;;5050783;28;20032;-67
2023/11/15 11:01:36;;;;;;;44.15;30.42;;;;;;;;;;5040581;28;20029;-63
2023/11/15 11:04:06;;;;;;;43.05;29.23;;;;;;;;;;5044488;28;20067;-65
2023/11/15 11:06:50;;;;;;;44.65;30.02;;;;;;;;;;5043905;28;20358;-60
2023/11/15 11:09:27;;;;;;;42.30;29.63;;;;;;;;;;5045334;28;20481;-60
2023/11/15 11:12:03;;;;;;;42.47;30.13;;;;;;;;;;5040230;28;20056;-62
2023/11/15 11:14:31;;;;;;;44.22;31.55;;;;;;;;;;5043384;28;20026;-61
2023/11/15 11:16:57;;;;;;;45.38;30.17;;;;;;;;;;5039287;28;20029;-63
2023/11/15 11:19:25;;;;;;;44.45;31.00;;;;;;;;;;5034579;28;20017;-61
2023/11/15 11:22:02;;;;;;;47.15;31.00;;;;;;;;;;5036153;28;20025;-62
2023/11/15 11:24:31;;;;;;;41.83;30.17;;;;;;;;;;5038595;28;20017;-63
2023/11/15 11:27:19;;;;;;;39.88;28.80;;;;;;;;;;5051201;28;20021;-63
2023/11/15 11:30:00;;;;;;;44.30;30.33;;;;;;;;;;5043047;28;20033;-61
2023/11/15 11:32:27;;;;;;;47.60;32.03;;;;;;;;;;5049722;28;20048;-64
2023/11/15 11:35:05;;;;;;;44.38;30.17;;;;;;;;;;5051106;28;20094;-64
2023/11/15 11:37:40;;;;;;;42.70;29.00;;;;;;;;;;5051105;28;20017;-59
2023/11/15 11:40:07;;;;;;;48.25;32.03;;;;;;;;;;5051638;28;20032;-61
2023/11/15 11:42:33;;;;;;;46.67;32.05;;;;;;;;;;5051139;28;20021;-61
2023/11/15 11:44:59;;;;;;;48.53;32.92;;;;;;;;;;5049626;28;20119;-61
2023/11/15 11:47:25;;;;;;;46.58;31.58;;;;;;;;;;5050898;28;20021;-61
2023/11/15 11:49:53;;;;;;;47.05;31.23;;;;;;;;;;5050835;28;20103;-61
2023/11/15 11:52:19;;;;;;;48.55;32.00;;;;;;;;;;5053026;28;20033;-61
2023/11/15 11:54:52;;;;;;;44.88;29.10;;;;;;;;;;5047796;28;20025;-61
2023/11/15 11:57:24;;;;;;;46.35;30.63;;;;;;;;;;5054709;28;20037;-62
2023/11/15 12:00:00;;;;;;;49.05;31.50;;;;;;;;;;5053296;28;20029;-62
2023/11/15 12:02:35;;;;;;;45.08;30.20;;;;;;;;;;5054688;28;20021;-62
2023/11/15 12:05:01;;;;;;;44.58;29.38;;;;;;;;;;5045356;28;20018;-62
2023/11/15 12:07:28;;;;;;;45.90;33.05;;;;;;;;;;5048401;28;20096;-61
2023/11/15 12:10:01;;;;;;;44.83;32.00;;;;;;;;;;5040537;28;20017;-62
2023/11/15 12:12:27;;;;;;;47.58;33.63;;;;;;;;;;5047238;28;20091;-61
2023/11/15 12:14:59;;;;;;;46.10;31.75;;;;;;;;;;5051999;28;20173;-61
2023/11/15 12:17:36;;;;;;;45.22;31.48;;;;;;;;;;5054268;28;20025;-61
2023/11/15 12:20:02;;;;;;;44.10;31.70;;;;;;;;;;5054150;28;20116;-61
2023/11/15 12:22:28;;;;;;;42.53;28.80;;;;;;;;;;5054181;28;20025;-61
2023/11/15 12:24:55;;;;;;;40.85;29.60;;;;;;;;;;5054152;28;20051;-62
2023/11/15 12:27:21;;;;;;;40.63;28.75;;;;;;;;;;5043875;28;20518;-61
2023/11/15 12:29:47;;;;;;;45.17;29.83;;;;;;;;;;5053911;28;20475;-61
2023/11/15 12:32:13;;;;;;;37.75;26.38;;;;;;;;;;5045730;28;20363;-61
2023/11/15 12:34:39;;;;;;;33.80;24.98;;;;;;;;;;5041590;28;20060;-61
2023/11/15 12:37:06;;;;;;;35.88;26.50;;;;;;;;;;5053719;28;20560;-61
2023/11/15 12:39:36;;;;;;;35.50;25.52;;;;;;;;;;5053550;28;20013;-61
2023/11/15 12:42:04;;;;;;;37.75;25.38;;;;;;;;;;5052045;28;20028;-61
2023/11/15 12:44:41;;;;;;;33.63;24.08;;;;;;;;;;5053586;28;20091;-61
2023/11/15 12:47:08;;;;;;;29.17;23.48;;;;;;;;;;5053615;28;20434;-61
2023/11/15 12:49:34;;;;;;;28.50;22.83;;;;;;;;;;5053388;28;20029;-61
2023/11/15 12:52:00;;;;;;;34.13;23.60;;;;;;;;;;5053358;28;20491;-61
2023/11/15 12:54:26;;;;;;;33.55;23.88;;;;;;;;;;5053516;28;20033;-61
2023/11/15 12:57:12;;;;;;;29.38;22.15;;;;;;;;;;5053500;28;20112;-61
2023/11/15 12:59:38;;;;;;;30.02;21.17;;;;;;;;;;5053373;28;20407;-61
2023/11/15 13:02:05;;;;;;;29.17;22.00;;;;;;;;;;5053186;28;20029;-61
2023/11/15 13:04:46;;;;;;;28.27;21.02;;;;;;;;;;5053171;28;20104;-62
2023/11/15 13:07:14;;;;;;;27.40;20.60;;;;;;;;;;5053166;28;20095;-61
2023/11/15 13:09:40;;;;;;;26.23;21.13;;;;;;;;;;5053245;28;20505;-61
2023/11/15 13:12:06;;;;;;;28.42;20.15;;;;;;;;;;5053015;28;20429;-61
2023/11/15 13:14:32;;;;;;;27.02;20.25;;;;;;;;;;5053343;28;20025;-61
2023/11/15 13:16:58;;;;;;;25.38;20.90;;;;;;;;;;5053001;28;20025;-61
2023/11/15 13:19:25;;;;;;;26.45;19.95;;;;;;;;;;5053194;28;20109;-62
2023/11/15 13:21:51;;;;;;;27.73;19.77;;;;;;;;;;5053003;28;20017;-61
2023/11/15 13:24:17;;;;;;;29.33;19.90;;;;;;;;;;5051516;28;20032;-61
2023/11/15 13:26:49;;;;;;;26.77;18.70;;;;;;;;;;5052373;28;20029;-61
2023/11/15 13:29:19;;;;;;;26.92;19.55;;;;;;;;;;5049746;28;20017;-62
2023/11/15 13:31:45;;;;;;;22.83;17.23;;;;;;;;;;5052636;28;20037;-61
2023/11/15 13:34:14;;;;;;;24.35;19.02;;;;;;;;;;5052758;28;20481;-61
2023/11/15 13:36:40;;;;;;;27.85;18.55;;;;;;;;;;5051305;28;20051;-61
2023/11/15 13:39:06;;;;;;;23.60;16.80;;;;;;;;;;5041159;28;20130;-60
2023/11/15 13:41:32;;;;;;;23.52;16.40;;;;;;;;;;5046480;28;20032;-60
2023/11/15 13:43:58;;;;;;;22.15;15.65;;;;;;;;;;5050797;28;20049;-54
2023/11/15 13:46:28;;;;;;;21.70;14.82;;;;;;;;;;5045344;28;20147;-55
2023/11/15 13:48:54;;;;;;;24.80;15.63;;;;;;;;;;5040836;28;20106;-54
2023/11/15 13:51:21;;;;;;;24.17;16.15;;;;;;;;;;5040225;28;20438;-59
2023/11/15 13:53:47;;;;;;;16.65;14.15;;;;;;;;;;5063679;28;20140;-68
2023/11/15 13:56:15;;;;;;;21.17;14.57;;;;;;;;;;5042871;28;20034;-65
2023/11/15 13:58:41;;;;;;;17.73;13.50;;;;;;;;;;5044807;28;20044;-75
2023/11/15 14:01:08;;;;;;;21.80;14.98;;;;;;;;;;5049318;28;20033;-67
2023/11/15 14:03:34;;;;;;;18.75;12.82;;;;;;;;;;5040647;28;20387;-66
2023/11/15 14:06:02;;;;;;;18.48;13.73;;;;;;;;;;5051414;28;20079;-72
2023/11/15 14:08:36;;;;;;;17.10;12.90;;;;;;;;;;5044622;28;20021;-70
2023/11/15 14:11:06;;;;;;;21.33;13.77;;;;;;;;;;5036629;28;20044;-73
2023/11/15 14:13:33;;;;;;;17.42;13.20;;;;;;;;;;5049455;28;20052;-69
2023/11/15 14:15:59;;;;;;;19.00;13.50;;;;;;;;;;5048309;28;20474;-71
2023/11/15 14:18:27;;;;;;;16.17;13.35;;;;;;;;;;5041865;28;20021;-67
2023/11/15 14:20:54;;;;;;;22.83;14.15;;;;;;;;;;5049134;28;20017;-64
2023/11/15 14:23:20;;;;;;;17.90;12.80;;;;;;;;;;5050798;28;20021;-64
2023/11/15 14:25:46;;;;;;;15.85;12.02;;;;;;;;;;5048189;28;20078;-66
2023/11/15 14:28:14;;;;;;;14.32;12.07;;;;;;;;;;5037430;28;20036;-67
2023/11/15 14:30:41;;;;;;;18.60;12.70;;;;;;;;;;5042675;28;20029;-66